KBGD

Hutchinson County Airport

Borger, Texas, USA
METAR KBGD 220638Z AUTO 34005KT 10SM SCT009 SCT013 BKN110 06/05 A3021 RMK AO2 T00610050
Observed Flight Rules
Apr-22 @ 06:38 UTC (20 minutes ago) Visual Flight Rules
Wind Visibility Clouds
340° at 5 knots 10 miles
  • Scattered at 900' AGL
  • Scattered at 1,300' AGL
  • Broken at 11,000' AGL
Temperatures Readings
Current 6°C / 43°F
Dewpoint 5°C / 41°F
Humidity 93%
Altimeter 30.21" Hg
Pressure 1023 hPa
Elevation 927
METAR KBGD 220638Z AUTO 34005KT 10SM SCT009 SCT013 BKN110 06/05 A3021 RMK AO2 T00610050
Observed Flight Rules
Apr-22 @ 06:38 UTC
(20 minutes ago)
VFR
Wind Visibility
340° at 5 knots 10 miles
Clouds
  • Scattered at 900' AGL
  • Scattered at 1,300' AGL
  • Broken at 11,000' AGL
Temperature Dewpoint
6°C / 43°F 5°C / 41°F
Humidity Altimeter Pressure
93% 30.21" Hg 1023 hPa